sensor_id;sensor_type;location;lat;lon;timestamp;pressure;altitude;pressure_sealevel;temperature;humidity
60099;BME280;62818;49.394;8.686;2023-04-25T00:00:06;99775.16;;;9.76;100.00
60099;BME280;62818;49.394;8.686;2023-04-25T00:01:07;99776.50;;;9.86;100.00
60099;BME280;62818;49.394;8.686;2023-04-25T00:02:09;99773.75;;;9.65;100.00
60099;BME280;62818;49.394;8.686;2023-04-25T00:03:09;99779.34;;;9.85;100.00
60099;BME280;62818;49.394;8.686;2023-04-25T00:04:09;99781.56;;;10.02;100.00
60099;BME280;62818;49.394;8.686;2023-04-25T00:05:11;99779.78;;;9.88;100.00
60099;BME280;62818;49.394;8.686;2023-04-25T00:06:12;99777.94;;;9.89;100.00
60099;BME280;62818;49.394;8.686;2023-04-25T00:07:13;99780.16;;;9.70;100.00
60099;BME280;62818;49.394;8.686;2023-04-25T00:08:13;99781.16;;;9.84;100.00
60099;BME280;62818;49.394;8.686;2023-04-25T00:09:14;99774.75;;;9.93;100.00
60099;BME280;62818;49.394;8.686;2023-04-25T00:10:15;99785.25;;;9.72;100.00
60099;BME280;62818;49.394;8.686;2023-04-25T00:11:16;99777.59;;;9.77;100.00
60099;BME280;62818;49.394;8.686;2023-04-25T00:12:16;99775.38;;;9.95;100.00
60099;BME280;62818;49.394;8.686;2023-04-25T00:13:17;99769.53;;;9.85;100.00
60099;BME280;62818;49.394;8.686;2023-04-25T00:14:17;99773.44;;;9.89;100.00
60099;BME280;62818;49.394;8.686;2023-04-25T00:15:18;99773.72;;;9.94;100.00
60099;BME280;62818;49.394;8.686;2023-04-25T00:16:18;99778.03;;;9.81;100.00
60099;BME280;62818;49.394;8.686;2023-04-25T00:17:19;99777.94;;;9.74;100.00
60099;BME280;62818;49.394;8.686;2023-04-25T00:18:20;99777.59;;;9.77;100.00
60099;BME280;62818;49.394;8.686;2023-04-25T00:19:20;99776.41;;;9.80;100.00
60099;BME280;62818;49.394;8.686;2023-04-25T00:20:21;99772.56;;;9.82;100.00
60099;BME280;62818;49.394;8.686;2023-04-25T00:21:24;99781.78;;;9.86;100.00
60099;BME280;62818;49.394;8.686;2023-04-25T00:22:25;99778.94;;;9.88;100.00
60099;BME280;62818;49.394;8.686;2023-04-25T00:23:26;99779.03;;;9.94;100.00
60099;BME280;62818;49.394;8.686;2023-04-25T00:24:26;99772.97;;;10.00;100.00
60099;BME280;62818;49.394;8.686;2023-04-25T00:25:27;99770.03;;;10.10;100.00
60099;BME280;62818;49.394;8.686;2023-04-25T00:26:27;99776.56;;;9.78;100.00
60099;BME280;62818;49.394;8.686;2023-04-25T00:27:28;99777.31;;;9.72;100.00
60099;BME280;62818;49.394;8.686;2023-04-25T00:28:28;99767.75;;;9.71;100.00
60099;BME280;62818;49.394;8.686;2023-04-25T00:29:29;99774.03;;;9.70;100.00
60099;BME280;62818;49.394;8.686;2023-04-25T00:30:29;99776.97;;;9.75;100.00
60099;BME280;62818;49.394;8.686;2023-04-25T00:31:30;99776.94;;;9.90;100.00
60099;BME280;62818;49.394;8.686;2023-04-25T00:32:30;99778.34;;;9.71;100.00
60099;BME280;62818;49.394;8.686;2023-04-25T00:33:31;99779.06;;;9.65;100.00
60099;BME280;62818;49.394;8.686;2023-04-25T00:34:31;99772.97;;;9.50;100.00
60099;BME280;62818;49.394;8.686;2023-04-25T00:35:32;99766.69;;;9.51;100.00
60099;BME280;62818;49.394;8.686;2023-04-25T00:36:33;99768.75;;;9.70;100.00
60099;BME280;62818;49.394;8.686;2023-04-25T00:37:33;99766.72;;;9.72;100.00
60099;BME280;62818;49.394;8.686;2023-04-25T00:38:35;99770.56;;;9.69;100.00
60099;BME280;62818;49.394;8.686;2023-04-25T00:39:35;99767.91;;;9.69;100.00
60099;BME280;62818;49.394;8.686;2023-04-25T00:40:36;99768.38;;;9.73;100.00
60099;BME280;62818;49.394;8.686;2023-04-25T00:41:36;99769.63;;;9.92;100.00
60099;BME280;62818;49.394;8.686;2023-04-25T00:42:37;99759.03;;;9.92;100.00
60099;BME280;62818;49.394;8.686;2023-04-25T00:43:39;99769.03;;;9.75;100.00
60099;BME280;62818;49.394;8.686;2023-04-25T00:44:40;99765.13;;;9.71;100.00
60099;BME280;62818;49.394;8.686;2023-04-25T00:45:43;99758.56;;;9.67;100.00
60099;BME280;62818;49.394;8.686;2023-04-25T00:46:49;99764.09;;;9.72;100.00
60099;BME280;62818;49.394;8.686;2023-04-25T00:47:50;99762.72;;;9.76;100.00
60099;BME280;62818;49.394;8.686;2023-04-25T00:48:51;99759.91;;;9.63;100.00
60099;BME280;62818;49.394;8.686;2023-04-25T00:49:51;99752.63;;;9.50;100.00
60099;BME280;62818;49.394;8.686;2023-04-25T00:50:54;99761.00;;;9.54;100.00
60099;BME280;62818;49.394;8.686;2023-04-25T00:51:56;99753.34;;;9.59;100.00
60099;BME280;62818;49.394;8.686;2023-04-25T00:52:57;99751.63;;;9.37;100.00
60099;BME280;62818;49.394;8.686;2023-04-25T00:53:58;99755.19;;;9.44;100.00
60099;BME280;62818;49.394;8.686;2023-04-25T00:54:59;99747.34;;;9.36;100.00
60099;BME280;62818;49.394;8.686;2023-04-25T00:56:01;99744.88;;;9.49;100.00
60099;BME280;62818;49.394;8.686;2023-04-25T00:57:01;99737.31;;;9.46;100.00
60099;BME280;62818;49.394;8.686;2023-04-25T00:58:03;99744.13;;;9.55;100.00
60099;BME280;62818;49.394;8.686;2023-04-25T00:59:03;99751.06;;;9.70;100.00
60099;BME280;62818;49.394;8.686;2023-04-25T01:00:05;99744.03;;;9.63;100.00
60099;BME280;62818;49.394;8.686;2023-04-25T01:01:07;99741.50;;;9.55;100.00
60099;BME280;62818;49.394;8.686;2023-04-25T01:02:09;99746.59;;;9.71;100.00
60099;BME280;62818;49.394;8.686;2023-04-25T01:03:09;99743.22;;;9.62;100.00
60099;BME280;62818;49.394;8.686;2023-04-25T01:04:10;99743.22;;;9.48;100.00
60099;BME280;62818;49.394;8.686;2023-04-25T01:05:11;99736.09;;;9.63;100.00
60099;BME280;62818;49.394;8.686;2023-04-25T01:06:12;99738.34;;;9.81;100.00
60099;BME280;62818;49.394;8.686;2023-04-25T01:07:13;99737.38;;;9.52;100.00
60099;BME280;62818;49.394;8.686;2023-04-25T01:08:14;99741.59;;;9.47;100.00
60099;BME280;62818;49.394;8.686;2023-04-25T01:09:15;99740.78;;;9.32;100.00
60099;BME280;62818;49.394;8.686;2023-04-25T01:10:16;99742.88;;;9.51;100.00
60099;BME280;62818;49.394;8.686;2023-04-25T01:11:17;99742.31;;;9.55;100.00
60099;BME280;62818;49.394;8.686;2023-04-25T01:12:17;99736.47;;;9.45;100.00
60099;BME280;62818;49.394;8.686;2023-04-25T01:13:18;99734.28;;;9.34;100.00
60099;BME280;62818;49.394;8.686;2023-04-25T01:14:20;99737.03;;;9.55;100.00
60099;BME280;62818;49.394;8.686;2023-04-25T01:15:20;99737.03;;;9.55;100.00
60099;BME280;62818;49.394;8.686;2023-04-25T01:16:21;99739.34;;;9.80;100.00
60099;BME280;62818;49.394;8.686;2023-04-25T01:17:24;99741.22;;;9.64;100.00
60099;BME280;62818;49.394;8.686;2023-04-25T01:18:24;99740.06;;;9.38;100.00
60099;BME280;62818;49.394;8.686;2023-04-25T01:19:25;99743.84;;;9.50;100.00
60099;BME280;62818;49.394;8.686;2023-04-25T01:20:26;99740.75;;;9.61;100.00
60099;BME280;62818;49.394;8.686;2023-04-25T01:21:28;99742.59;;;9.46;100.00
60099;BME280;62818;49.394;8.686;2023-04-25T01:22:30;99742.78;;;9.30;100.00
60099;BME280;62818;49.394;8.686;2023-04-25T01:23:31;99738.97;;;9.47;100.00
60099;BME280;62818;49.394;8.686;2023-04-25T01:24:33;99748.22;;;9.43;100.00
60099;BME280;62818;49.394;8.686;2023-04-25T01:25:34;99739.59;;;9.49;100.00
60099;BME280;62818;49.394;8.686;2023-04-25T01:26:35;99742.66;;;9.52;100.00
60099;BME280;62818;49.394;8.686;2023-04-25T01:27:36;99735.13;;;9.35;100.00
60099;BME280;62818;49.394;8.686;2023-04-25T01:28:38;99738.88;;;9.40;100.00
60099;BME280;62818;49.394;8.686;2023-04-25T01:29:41;99746.63;;;9.42;100.00
60099;BME280;62818;49.394;8.686;2023-04-25T01:30:42;99743.47;;;9.67;100.00
60099;BME280;62818;49.394;8.686;2023-04-25T01:31:44;99741.84;;;9.52;100.00
60099;BME280;62818;49.394;8.686;2023-04-25T01:32:44;99734.97;;;9.72;100.00
60099;BME280;62818;49.394;8.686;2023-04-25T01:33:47;99734.34;;;9.70;100.00
60099;BME280;62818;49.394;8.686;2023-04-25T01:34:47;99727.81;;;9.37;100.00
60099;BME280;62818;49.394;8.686;2023-04-25T01:35:48;99733.56;;;9.26;100.00
60099;BME280;62818;49.394;8.686;2023-04-25T01:36:49;99733.81;;;9.45;100.00
60099;BME280;62818;49.394;8.686;2023-04-25T01:37:51;99727.19;;;9.35;100.00
60099;BME280;62818;49.394;8.686;2023-04-25T01:38:51;99730.56;;;9.29;100.00
60099;BME280;62818;49.394;8.686;2023-04-25T01:39:53;99733.56;;;9.55;100.00
60099;BME280;62818;49.394;8.686;2023-04-25T01:40:54;99739.59;;;9.49;100.00
60099;BME280;62818;49.394;8.686;2023-04-25T01:41:56;99736.03;;;9.42;100.00
60099;BME280;62818;49.394;8.686;2023-04-25T01:42:57;99738.22;;;9.24;100.00
60099;BME280;62818;49.394;8.686;2023-04-25T01:43:57;99737.13;;;9.33;100.00
60099;BME280;62818;49.394;8.686;2023-04-25T01:44:58;99737.94;;;9.19;100.00
60099;BME280;62818;49.394;8.686;2023-04-25T01:45:59;99739.50;;;9.28;100.00
60099;BME280;62818;49.394;8.686;2023-04-25T01:47:00;99738.22;;;9.24;100.00
60099;BME280;62818;49.394;8.686;2023-04-25T01:48:00;99732.47;;;9.35;100.00
60099;BME280;62818;49.394;8.686;2023-04-25T01:49:01;99730.84;;;9.34;100.00
60099;BME280;62818;49.394;8.686;2023-04-25T01:50:04;99739.84;;;9.54;100.00
60099;BME280;62818;49.394;8.686;2023-04-25T01:51:05;99730.47;;;9.37;100.00
60099;BME280;62818;49.394;8.686;2023-04-25T01:52:06;99735.69;;;9.16;100.00
60099;BME280;62818;49.394;8.686;2023-04-25T01:53:09;99735.38;;;9.25;100.00
60099;BME280;62818;49.394;8.686;2023-04-25T01:54:12;99730.66;;;9.35;100.00
60099;BME280;62818;49.394;8.686;2023-04-25T01:55:13;99736.94;;;9.20;100.00
60099;BME280;62818;49.394;8.686;2023-04-25T01:56:14;99723.81;;;9.12;100.00
60099;BME280;62818;49.394;8.686;2023-04-25T01:57:14;99739.16;;;9.16;100.00
60099;BME280;62818;49.394;8.686;2023-04-25T01:58:15;99730.38;;;9.16;100.00
60099;BME280;62818;49.394;8.686;2023-04-25T01:59:15;99737.66;;;9.43;100.00
60099;BME280;62818;49.394;8.686;2023-04-25T02:00:16;99728.19;;;9.34;100.00
60099;BME280;62818;49.394;8.686;2023-04-25T02:01:17;99734.59;;;9.25;100.00
60099;BME280;62818;49.394;8.686;2023-04-25T02:02:17;99731.41;;;9.29;100.00
60099;BME280;62818;49.394;8.686;2023-04-25T02:03:18;99738.59;;;9.35;100.00
60099;BME280;62818;49.394;8.686;2023-04-25T02:04:18;99740.66;;;9.25;100.00
60099;BME280;62818;49.394;8.686;2023-04-25T02:05:19;99740.41;;;9.35;100.00
60099;BME280;62818;49.394;8.686;2023-04-25T02:06:20;99739.97;;;9.31;100.00
60099;BME280;62818;49.394;8.686;2023-04-25T02:07:21;99739.06;;;9.10;100.00
60099;BME280;62818;49.394;8.686;2023-04-25T02:08:22;99735.19;;;9.12;100.00
60099;BME280;62818;49.394;8.686;2023-04-25T02:09:23;99732.84;;;9.32;100.00
60099;BME280;62818;49.394;8.686;2023-04-25T02:10:23;99737.13;;;9.33;100.00
60099;BME280;62818;49.394;8.686;2023-04-25T02:11:24;99734.56;;;9.10;100.00
60099;BME280;62818;49.394;8.686;2023-04-25T02:12:25;99737.50;;;9.01;100.00
60099;BME280;62818;49.394;8.686;2023-04-25T02:13:26;99740.41;;;9.20;100.00
60099;BME280;62818;49.394;8.686;2023-04-25T02:14:27;99741.59;;;9.32;100.00
60099;BME280;62818;49.394;8.686;2023-04-25T02:15:28;99734.13;;;9.36;100.00
60099;BME280;62818;49.394;8.686;2023-04-25T02:16:29;99738.59;;;9.21;100.00
60099;BME280;62818;49.394;8.686;2023-04-25T02:17:30;99742.78;;;9.30;100.00
60099;BME280;62818;49.394;8.686;2023-04-25T02:18:31;99738.59;;;9.21;100.00
60099;BME280;62818;49.394;8.686;2023-04-25T02:19:33;99746.16;;;9.38;100.00
60099;BME280;62818;49.394;8.686;2023-04-25T02:20:34;99738.78;;;9.34;100.00
60099;BME280;62818;49.394;8.686;2023-04-25T02:21:34;99747.13;;;9.52;100.00
60099;BME280;62818;49.394;8.686;2023-04-25T02:22:35;99740.50;;;9.27;100.00
60099;BME280;62818;49.394;8.686;2023-04-25T02:23:37;99735.13;;;9.35;100.00
60099;BME280;62818;49.394;8.686;2023-04-25T02:24:38;99737.47;;;9.30;100.00
60099;BME280;62818;49.394;8.686;2023-04-25T02:25:38;99748.34;;;9.20;100.00
60099;BME280;62818;49.394;8.686;2023-04-25T02:26:39;99738.50;;;9.29;100.00
60099;BME280;62818;49.394;8.686;2023-04-25T02:27:39;99735.56;;;9.24;100.00
60099;BME280;62818;49.394;8.686;2023-04-25T02:28:40;99737.47;;;9.30;100.00
60099;BME280;62818;49.394;8.686;2023-04-25T02:29:40;99740.28;;;9.43;100.00
60099;BME280;62818;49.394;8.686;2023-04-25T02:30:41;99741.69;;;9.39;100.00
60099;BME280;62818;49.394;8.686;2023-04-25T02:31:42;99735.47;;;9.17;100.00
60099;BME280;62818;49.394;8.686;2023-04-25T02:32:42;99740.41;;;9.20;100.00
60099;BME280;62818;49.394;8.686;2023-04-25T02:33:43;99739.94;;;9.17;100.00
60099;BME280;62818;49.394;8.686;2023-04-25T02:34:44;99740.78;;;9.32;100.00
60099;BME280;62818;49.394;8.686;2023-04-25T02:35:45;99732.38;;;9.28;100.00
60099;BME280;62818;49.394;8.686;2023-04-25T02:36:45;99740.31;;;9.28;100.00
60099;BME280;62818;49.394;8.686;2023-04-25T02:37:46;99744.97;;;9.41;100.00
60099;BME280;62818;49.394;8.686;2023-04-25T02:38:46;99743.50;;;9.24;100.00
60099;BME280;62818;49.394;8.686;2023-04-25T02:39:47;99740.19;;;8.92;100.00
60099;BME280;62818;49.394;8.686;2023-04-25T02:40:47;99743.38;;;8.88;100.00
60099;BME280;62818;49.394;8.686;2023-04-25T02:41:48;99748.97;;;9.08;100.00
60099;BME280;62818;49.394;8.686;2023-04-25T02:42:48;99744.97;;;9.12;100.00
60099;BME280;62818;49.394;8.686;2023-04-25T02:43:48;99749.34;;;9.05;100.00
60099;BME280;62818;49.394;8.686;2023-04-25T02:44:49;99738.31;;;9.16;100.00
60099;BME280;62818;49.394;8.686;2023-04-25T02:45:49;99734.75;;;9.38;100.00
60099;BME280;62818;49.394;8.686;2023-04-25T02:46:50;99743.78;;;9.29;100.00
60099;BME280;62818;49.394;8.686;2023-04-25T02:47:50;99749.78;;;9.08;100.00
60099;BME280;62818;49.394;8.686;2023-04-25T02:48:51;99739.00;;;8.95;100.00
60099;BME280;62818;49.394;8.686;2023-04-25T02:49:51;99736.13;;;9.19;100.00
60099;BME280;62818;49.394;8.686;2023-04-25T02:50:52;99742.25;;;9.05;100.00
60099;BME280;62818;49.394;8.686;2023-04-25T02:51:52;99738.50;;;9.29;100.00
60099;BME280;62818;49.394;8.686;2023-04-25T02:52:53;99737.47;;;9.30;100.00
60099;BME280;62818;49.394;8.686;2023-04-25T02:53:53;99737.75;;;8.91;100.00
60099;BME280;62818;49.394;8.686;2023-04-25T02:54:54;99735.63;;;8.86;100.00
60099;BME280;62818;49.394;8.686;2023-04-25T02:55:54;99733.19;;;8.85;100.00
60099;BME280;62818;49.394;8.686;2023-04-25T02:56:58;99738.47;;;9.00;100.00
60099;BME280;62818;49.394;8.686;2023-04-25T02:57:58;99737.09;;;9.04;100.00
60099;BME280;62818;49.394;8.686;2023-04-25T02:58:59;99736.03;;;9.13;100.00
60099;BME280;62818;49.394;8.686;2023-04-25T02:59:59;99729.72;;;8.84;100.00
60099;BME280;62818;49.394;8.686;2023-04-25T03:01:00;99726.53;;;8.74;100.00
60099;BME280;62818;49.394;8.686;2023-04-25T03:02:00;99730.50;;;8.70;100.00
60099;BME280;62818;49.394;8.686;2023-04-25T03:03:01;99732.81;;;8.88;100.00
60099;BME280;62818;49.394;8.686;2023-04-25T03:04:02;99728.63;;;8.93;100.00
60099;BME280;62818;49.394;8.686;2023-04-25T03:05:03;99727.28;;;8.98;100.00
60099;BME280;62818;49.394;8.686;2023-04-25T03:06:03;99731.03;;;9.03;100.00
60099;BME280;62818;49.394;8.686;2023-04-25T03:07:05;99731.91;;;9.10;100.00
60099;BME280;62818;49.394;8.686;2023-04-25T03:08:05;99735.75;;;9.08;100.00
60099;BME280;62818;49.394;8.686;2023-04-25T03:09:06;99729.56;;;9.01;100.00
60099;BME280;62818;49.394;8.686;2023-04-25T03:10:07;99733.31;;;8.69;100.00
60099;BME280;62818;49.394;8.686;2023-04-25T03:11:08;99728.78;;;8.77;100.00
60099;BME280;62818;49.394;8.686;2023-04-25T03:12:08;99732.84;;;9.03;100.00
60099;BME280;62818;49.394;8.686;2023-04-25T03:13:09;99728.28;;;9.26;100.00
60099;BME280;62818;49.394;8.686;2023-04-25T03:14:09;99729.28;;;9.25;100.00
60099;BME280;62818;49.394;8.686;2023-04-25T03:15:10;99725.41;;;8.83;100.00
60099;BME280;62818;49.394;8.686;2023-04-25T03:16:10;99730.53;;;8.85;100.00
60099;BME280;62818;49.394;8.686;2023-04-25T03:17:11;99726.34;;;8.90;100.00
60099;BME280;62818;49.394;8.686;2023-04-25T03:18:11;99728.94;;;8.99;100.00
60099;BME280;62818;49.394;8.686;2023-04-25T03:19:12;99726.19;;;9.07;100.00
60099;BME280;62818;49.394;8.686;2023-04-25T03:20:12;99722.72;;;8.91;100.00
60099;BME280;62818;49.394;8.686;2023-04-25T03:21:13;99719.06;;;8.92;100.00
60099;BME280;62818;49.394;8.686;2023-04-25T03:22:13;99716.44;;;9.07;100.00
60099;BME280;62818;49.394;8.686;2023-04-25T03:23:14;99716.94;;;8.88;100.00
60099;BME280;62818;49.394;8.686;2023-04-25T03:24:14;99716.06;;;9.10;100.00
60099;BME280;62818;49.394;8.686;2023-04-25T03:25:15;99712.88;;;8.85;100.00
60099;BME280;62818;49.394;8.686;2023-04-25T03:26:16;99714.06;;;8.98;100.00
60099;BME280;62818;49.394;8.686;2023-04-25T03:27:17;99715.56;;;8.77;100.00
60099;BME280;62818;49.394;8.686;2023-04-25T03:28:17;99717.97;;;9.02;100.00
60099;BME280;62818;49.394;8.686;2023-04-25T03:29:18;99721.88;;;9.06;100.00
60099;BME280;62818;49.394;8.686;2023-04-25T03:30:18;99720.63;;;9.02;100.00
60099;BME280;62818;49.394;8.686;2023-04-25T03:31:19;99717.72;;;8.97;100.00
60099;BME280;62818;49.394;8.686;2023-04-25T03:32:20;99727.91;;;9.00;100.00
60099;BME280;62818;49.394;8.686;2023-04-25T03:33:20;99718.69;;;9.10;100.00
60099;BME280;62818;49.394;8.686;2023-04-25T03:34:21;99720.25;;;9.19;100.00
60099;BME280;62818;49.394;8.686;2023-04-25T03:35:21;99717.44;;;9.21;100.00
60099;BME280;62818;49.394;8.686;2023-04-25T03:36:23;99722.53;;;9.08;100.00
60099;BME280;62818;49.394;8.686;2023-04-25T03:37:24;99714.13;;;9.19;100.00
60099;BME280;62818;49.394;8.686;2023-04-25T03:38:24;99722.44;;;9.16;100.00
60099;BME280;62818;49.394;8.686;2023-04-25T03:39:25;99722.75;;;9.21;100.00
60099;BME280;62818;49.394;8.686;2023-04-25T03:40:25;99719.25;;;8.91;100.00
60099;BME280;62818;49.394;8.686;2023-04-25T03:41:26;99715.31;;;9.02;100.00
60099;BME280;62818;49.394;8.686;2023-04-25T03:42:27;99716.78;;;9.19;100.00
60099;BME280;62818;49.394;8.686;2023-04-25T03:43:28;99718.06;;;9.08;100.00
60099;BME280;62818;49.394;8.686;2023-04-25T03:44:28;99712.41;;;9.11;100.00
60099;BME280;62818;49.394;8.686;2023-04-25T03:45:29;99723.09;;;9.18;100.00
60099;BME280;62818;49.394;8.686;2023-04-25T03:46:29;99719.72;;;9.09;100.00
60099;BME280;62818;49.394;8.686;2023-04-25T03:47:30;99714.84;;;8.83;100.00
60099;BME280;62818;49.394;8.686;2023-04-25T03:48:30;99719.03;;;8.78;100.00
60099;BME280;62818;49.394;8.686;2023-04-25T03:49:31;99720.78;;;9.15;100.00
60099;BME280;62818;49.394;8.686;2023-04-25T03:50:32;99725.00;;;9.09;100.00
60099;BME280;62818;49.394;8.686;2023-04-25T03:51:33;99726.25;;;8.84;100.00
60099;BME280;62818;49.394;8.686;2023-04-25T03:52:33;99723.34;;;8.79;100.00
60099;BME280;62818;49.394;8.686;2023-04-25T03:53:34;99723.72;;;9.05;100.00
60099;BME280;62818;49.394;8.686;2023-04-25T03:54:34;99726.63;;;8.81;100.00
60099;BME280;62818;49.394;8.686;2023-04-25T03:55:35;99721.06;;;8.90;100.00
60099;BME280;62818;49.394;8.686;2023-04-25T03:56:35;99725.66;;;8.97;100.00
60099;BME280;62818;49.394;8.686;2023-04-25T03:57:36;99726.16;;;8.77;100.00
60099;BME280;62818;49.394;8.686;2023-04-25T03:58:36;99724.13;;;8.79;100.00
60099;BME280;62818;49.394;8.686;2023-04-25T03:59:37;99713.84;;;8.84;100.00
60099;BME280;62818;49.394;8.686;2023-04-25T04:00:37;99731.38;;;8.85;100.00
60099;BME280;62818;49.394;8.686;2023-04-25T04:01:37;99725.50;;;8.90;100.00
60099;BME280;62818;49.394;8.686;2023-04-25T04:02:38;99721.06;;;8.90;100.00
60099;BME280;62818;49.394;8.686;2023-04-25T04:03:39;99726.00;;;8.93;100.00
60099;BME280;62818;49.394;8.686;2023-04-25T04:04:39;99730.59;;;8.77;100.00
60099;BME280;62818;49.394;8.686;2023-04-25T04:05:40;99721.03;;;8.76;100.00
60099;BME280;62818;49.394;8.686;2023-04-25T04:06:40;99720.34;;;8.97;100.00
60099;BME280;62818;49.394;8.686;2023-04-25T04:07:42;99728.19;;;9.05;100.00
60099;BME280;62818;49.394;8.686;2023-04-25T04:08:42;99722.72;;;8.91;100.00
60099;BME280;62818;49.394;8.686;2023-04-25T04:09:43;99727.47;;;8.96;100.00
60099;BME280;62818;49.394;8.686;2023-04-25T04:10:43;99723.44;;;9.00;100.00
60099;BME280;62818;49.394;8.686;2023-04-25T04:11:44;99722.22;;;8.88;100.00
60099;BME280;62818;49.394;8.686;2023-04-25T04:12:45;99729.81;;;8.76;100.00
60099;BME280;62818;49.394;8.686;2023-04-25T04:13:45;99723.69;;;8.90;100.00
60099;BME280;62818;49.394;8.686;2023-04-25T04:14:45;99724.72;;;8.89;100.00
60099;BME280;62818;49.394;8.686;2023-04-25T04:15:46;99725.16;;;8.93;100.00
60099;BME280;62818;49.394;8.686;2023-04-25T04:16:46;99730.66;;;9.06;100.00
60099;BME280;62818;49.394;8.686;2023-04-25T04:17:48;99733.63;;;8.88;100.00
60099;BME280;62818;49.394;8.686;2023-04-25T04:18:49;99724.97;;;8.80;100.00
60099;BME280;62818;49.394;8.686;2023-04-25T04:19:49;99729.50;;;8.71;100.00
60099;BME280;62818;49.394;8.686;2023-04-25T04:20:50;99730.69;;;8.83;100.00
60099;BME280;62818;49.394;8.686;2023-04-25T04:21:51;99732.00;;;9.02;100.00
60099;BME280;62818;49.394;8.686;2023-04-25T04:22:51;99731.44;;;8.77;100.00
60099;BME280;62818;49.394;8.686;2023-04-25T04:23:51;99730.50;;;8.70;100.00
60099;BME280;62818;49.394;8.686;2023-04-25T04:24:52;99735.97;;;8.83;100.00
60099;BME280;62818;49.394;8.686;2023-04-25T04:25:53;99730.81;;;8.90;100.00
60099;BME280;62818;49.394;8.686;2023-04-25T04:26:54;99740.38;;;9.06;100.00
60099;BME280;62818;49.394;8.686;2023-04-25T04:27:55;99731.72;;;8.97;100.00
60099;BME280;62818;49.394;8.686;2023-04-25T04:28:55;99736.56;;;8.93;100.00
60099;BME280;62818;49.394;8.686;2023-04-25T04:29:56;99736.06;;;8.75;100.00
60099;BME280;62818;49.394;8.686;2023-04-25T04:30:57;99730.78;;;8.61;100.00
60099;BME280;62818;49.394;8.686;2023-04-25T04:31:58;99734.47;;;8.52;100.00
60099;BME280;62818;49.394;8.686;2023-04-25T04:32:58;99741.34;;;8.75;100.00
60099;BME280;62818;49.394;8.686;2023-04-25T04:34:00;99730.66;;;8.54;100.00
60099;BME280;62818;49.394;8.686;2023-04-25T04:35:01;99735.56;;;8.57;100.00
60099;BME280;62818;49.394;8.686;2023-04-25T04:36:03;99739.03;;;8.58;100.00
60099;BME280;62818;49.394;8.686;2023-04-25T04:37:04;99728.56;;;8.50;100.00
60099;BME280;62818;49.394;8.686;2023-04-25T04:38:05;99734.88;;;8.63;100.00
60099;BME280;62818;49.394;8.686;2023-04-25T04:39:06;99739.72;;;8.74;100.00
60099;BME280;62818;49.394;8.686;2023-04-25T04:40:07;99740.56;;;8.89;100.00
60099;BME280;62818;49.394;8.686;2023-04-25T04:41:08;99739.84;;;8.95;100.00
60099;BME280;62818;49.394;8.686;2023-04-25T04:42:08;99735.97;;;8.83;100.00
60099;BME280;62818;49.394;8.686;2023-04-25T04:43:11;99744.09;;;8.67;100.00
60099;BME280;62818;49.394;8.686;2023-04-25T04:44:12;99741.75;;;9.02;100.00
60099;BME280;62818;49.394;8.686;2023-04-25T04:45:12;99739.31;;;8.85;100.00
60099;BME280;62818;49.394;8.686;2023-04-25T04:46:13;99740.28;;;8.99;100.00
60099;BME280;62818;49.394;8.686;2023-04-25T04:47:14;99753.16;;;9.17;100.00
60099;BME280;62818;49.394;8.686;2023-04-25T04:48:15;99746.16;;;9.09;100.00
60099;BME280;62818;49.394;8.686;2023-04-25T04:49:15;99748.22;;;8.99;100.00
60099;BME280;62818;49.394;8.686;2023-04-25T04:50:16;99752.41;;;8.93;100.00
60099;BME280;62818;49.394;8.686;2023-04-25T04:51:17;99747.13;;;8.93;100.00
60099;BME280;62818;49.394;8.686;2023-04-25T04:52:17;99752.28;;;9.10;100.00
60099;BME280;62818;49.394;8.686;2023-04-25T04:53:19;99761.34;;;8.92;100.00
60099;BME280;62818;49.394;8.686;2023-04-25T04:54:19;99753.69;;;8.83;100.00
60099;BME280;62818;49.394;8.686;2023-04-25T04:55:20;99759.50;;;8.78;100.00
60099;BME280;62818;49.394;8.686;2023-04-25T04:56:20;99755.50;;;8.82;100.00
60099;BME280;62818;49.394;8.686;2023-04-25T04:57:23;99757.63;;;8.64;100.00
60099;BME280;62818;49.394;8.686;2023-04-25T04:58:24;99759.09;;;8.67;100.00
60099;BME280;62818;49.394;8.686;2023-04-25T04:59:24;99757.88;;;8.55;100.00
60099;BME280;62818;49.394;8.686;2023-04-25T05:00:25;99765.16;;;8.53;100.00
60099;BME280;62818;49.394;8.686;2023-04-25T05:01:26;99765.63;;;8.56;100.00
60099;BME280;62818;49.394;8.686;2023-04-25T05:02:26;99763.44;;;8.60;100.00
60099;BME280;62818;49.394;8.686;2023-04-25T05:03:27;99758.34;;;8.58;100.00
60099;BME280;62818;49.394;8.686;2023-04-25T05:04:27;99761.97;;;8.57;100.00
60099;BME280;62818;49.394;8.686;2023-04-25T05:05:28;99763.63;;;8.58;100.00
60099;BME280;62818;49.394;8.686;2023-04-25T05:06:29;99763.41;;;8.68;100.00
60099;BME280;62818;49.394;8.686;2023-04-25T05:07:30;99766.06;;;8.82;100.00
60099;BME280;62818;49.394;8.686;2023-04-25T05:08:30;99765.09;;;8.98;100.00
60099;BME280;62818;49.394;8.686;2023-04-25T05:09:31;99769.56;;;8.98;100.00
60099;BME280;62818;49.394;8.686;2023-04-25T05:10:31;99768.13;;;8.72;100.00
60099;BME280;62818;49.394;8.686;2023-04-25T05:11:32;99763.56;;;8.66;100.00
60099;BME280;62818;49.394;8.686;2023-04-25T05:12:32;99770.03;;;8.64;100.00
60099;BME280;62818;49.394;8.686;2023-04-25T05:13:33;99766.94;;;8.75;100.00
60099;BME280;62818;49.394;8.686;2023-04-25T05:14:33;99768.78;;;8.74;100.00
60099;BME280;62818;49.394;8.686;2023-04-25T05:15:34;99772.28;;;8.89;100.00
60099;BME280;62818;49.394;8.686;2023-04-25T05:16:35;99775.03;;;9.11;100.00
60099;BME280;62818;49.394;8.686;2023-04-25T05:17:35;99774.84;;;8.98;100.00
60099;BME280;62818;49.394;8.686;2023-04-25T05:18:36;99770.94;;;8.93;100.00
60099;BME280;62818;49.394;8.686;2023-04-25T05:19:36;99773.56;;;8.93;100.00
60099;BME280;62818;49.394;8.686;2023-04-25T05:20:37;99777.88;;;9.09;100.00
60099;BME280;62818;49.394;8.686;2023-04-25T05:21:37;99773.78;;;9.21;100.00